Time;durP1;ratioP1;P1;durP2;ratioP2;P2;SDS_P1;SDS_P2;PMS_P1;PMS_P2;Temp;Humidity;BMP_temperature;BMP_pressure;BME280_temperature;BME280_humidity;BME280_pressure;Samples;Min_cycle;Max_cycle;Signal;HPM_P1;HPM_P2
2021/10/22 00:01:14;;;;;;;94.30;26.57;;;;;;;;;;5003220;28;20527;-94
2021/10/22 00:03:41;;;;;;;96.30;26.10;;;;;;;;;;5002610;28;20464;-94
2021/10/22 00:06:07;;;;;;;102.57;28.53;;;;;;;;;;5002578;28;20479;-94
2021/10/22 00:08:34;;;;;;;93.17;25.33;;;;;;;;;;5001674;28;20610;-94
2021/10/22 00:11:02;;;;;;;97.93;26.70;;;;;;;;;;5001738;28;20457;-95
2021/10/22 00:13:29;;;;;;;100.00;28.50;;;;;;;;;;5000799;28;20448;-95
2021/10/22 00:15:55;;;;;;;93.80;25.00;;;;;;;;;;5001720;28;20476;-94
2021/10/22 00:18:22;;;;;;;95.90;26.20;;;;;;;;;;5002455;28;20637;-95
2021/10/22 00:20:49;;;;;;;92.07;25.00;;;;;;;;;;5000836;28;20472;-95
2021/10/22 00:23:15;;;;;;;95.67;26.00;;;;;;;;;;5001032;28;20468;-94
2021/10/22 00:25:42;;;;;;;100.87;27.37;;;;;;;;;;5000658;28;20504;-95
2021/10/22 00:28:10;;;;;;;101.27;28.90;;;;;;;;;;5000943;28;20444;-94
2021/10/22 00:30:37;;;;;;;106.20;27.90;;;;;;;;;;5001457;28;20448;-95
2021/10/22 00:33:03;;;;;;;105.40;29.10;;;;;;;;;;5002804;28;20444;-95
2021/10/22 00:35:30;;;;;;;101.57;28.20;;;;;;;;;;4999432;28;21423;-94
2021/10/22 00:37:56;;;;;;;98.50;27.83;;;;;;;;;;5000352;28;20464;-95
2021/10/22 00:40:24;;;;;;;104.27;29.70;;;;;;;;;;5001624;28;20452;-94
2021/10/22 00:42:51;;;;;;;100.00;28.07;;;;;;;;;;5002558;28;20457;-94
2021/10/22 00:45:19;;;;;;;96.40;25.90;;;;;;;;;;5003032;28;20491;-95
2021/10/22 00:47:45;;;;;;;99.27;27.43;;;;;;;;;;5003160;28;20461;-95
2021/10/22 00:50:12;;;;;;;97.10;27.43;;;;;;;;;;5001082;28;20472;-94
2021/10/22 00:52:39;;;;;;;102.57;28.57;;;;;;;;;;5002661;28;20444;-94
2021/10/22 00:55:06;;;;;;;94.57;25.60;;;;;;;;;;5002533;28;20547;-93
2021/10/22 00:57:32;;;;;;;102.57;25.93;;;;;;;;;;5001576;28;20851;-94
2021/10/22 00:59:59;;;;;;;95.33;26.90;;;;;;;;;;5001645;28;20449;-94
2021/10/22 01:02:26;;;;;;;97.60;26.20;;;;;;;;;;5001805;28;20449;-94
2021/10/22 01:04:53;;;;;;;101.03;26.33;;;;;;;;;;5001323;28;20523;-94
2021/10/22 01:07:20;;;;;;;89.43;23.40;;;;;;;;;;5002203;28;20555;-93
2021/10/22 01:09:47;;;;;;;94.00;24.47;;;;;;;;;;5002665;28;20452;-94
2021/10/22 01:12:13;;;;;;;95.00;24.87;;;;;;;;;;5002784;28;20459;-93
2021/10/22 01:14:41;;;;;;;95.07;25.40;;;;;;;;;;5005313;28;20457;-94
2021/10/22 01:17:07;;;;;;;97.57;25.50;;;;;;;;;;5010760;28;20456;-94
2021/10/22 01:19:35;;;;;;;96.77;26.27;;;;;;;;;;5013610;28;20511;-93
2021/10/22 01:22:04;;;;;;;100.90;26.27;;;;;;;;;;5008722;28;20464;-93
2021/10/22 01:24:30;;;;;;;98.90;25.90;;;;;;;;;;5006267;28;21033;-93
2021/10/22 01:26:57;;;;;;;98.80;27.33;;;;;;;;;;5006021;28;20448;-94
2021/10/22 01:29:24;;;;;;;128.87;30.43;;;;;;;;;;5004171;28;20856;-92
2021/10/22 01:31:50;;;;;;;101.63;28.10;;;;;;;;;;5004838;28;20536;-93
2021/10/22 01:34:17;;;;;;;121.77;31.10;;;;;;;;;;5005019;28;20551;-93
2021/10/22 01:36:43;;;;;;;124.50;32.73;;;;;;;;;;5004433;28;20469;-94
2021/10/22 01:39:11;;;;;;;244.63;38.07;;;;;;;;;;5006054;28;20515;-93
2021/10/22 01:41:38;;;;;;;203.40;35.37;;;;;;;;;;5005595;28;20464;-93
2021/10/22 01:44:07;;;;;;;152.63;34.43;;;;;;;;;;5004014;28;20452;-93
2021/10/22 01:46:33;;;;;;;123.87;32.60;;;;;;;;;;5005495;28;20556;-93
2021/10/22 01:49:00;;;;;;;159.80;36.07;;;;;;;;;;5005297;28;20449;-93
2021/10/22 01:51:26;;;;;;;246.63;39.20;;;;;;;;;;5003936;28;20492;-94
2021/10/22 01:53:54;;;;;;;199.53;35.40;;;;;;;;;;5005296;28;20453;-93
2021/10/22 01:56:22;;;;;;;198.90;33.67;;;;;;;;;;5005877;28;20480;-93
2021/10/22 01:58:48;;;;;;;222.00;37.67;;;;;;;;;;5005189;28;20455;-93
2021/10/22 02:01:15;;;;;;;180.00;33.67;;;;;;;;;;5005540;28;20453;-93
2021/10/22 02:03:41;;;;;;;107.53;29.47;;;;;;;;;;5004870;28;20452;-93
2021/10/22 02:06:08;;;;;;;103.77;27.33;;;;;;;;;;5003571;28;20853;-93
2021/10/22 02:08:34;;;;;;;106.60;30.40;;;;;;;;;;5004721;28;20449;-93
2021/10/22 02:11:01;;;;;;;111.97;32.00;;;;;;;;;;5004625;28;20448;-93
2021/10/22 02:13:29;;;;;;;102.80;30.80;;;;;;;;;;5004481;28;20496;-93
2021/10/22 02:15:56;;;;;;;131.80;30.90;;;;;;;;;;5004661;28;20845;-94
2021/10/22 02:18:22;;;;;;;113.47;31.83;;;;;;;;;;5003858;28;20484;-93
2021/10/22 02:20:49;;;;;;;128.50;34.60;;;;;;;;;;5002412;28;20468;-93
2021/10/22 02:23:16;;;;;;;129.50;33.93;;;;;;;;;;5000307;28;20465;-93
2021/10/22 02:25:43;;;;;;;118.03;33.50;;;;;;;;;;4985273;28;20521;-93
2021/10/22 02:28:10;;;;;;;118.47;34.90;;;;;;;;;;4992787;28;20918;-93
2021/10/22 02:30:37;;;;;;;126.13;33.17;;;;;;;;;;5004023;28;20445;-93
2021/10/22 02:33:04;;;;;;;136.00;34.30;;;;;;;;;;5005050;28;20461;-93
2021/10/22 02:35:31;;;;;;;129.27;37.23;;;;;;;;;;5004506;28;20520;-93
2021/10/22 02:37:57;;;;;;;122.73;33.77;;;;;;;;;;5003368;28;20489;-93
2021/10/22 02:40:24;;;;;;;132.33;34.57;;;;;;;;;;5003025;28;20448;-93
2021/10/22 02:42:50;;;;;;;129.00;34.90;;;;;;;;;;5003992;28;20488;-93
2021/10/22 02:45:17;;;;;;;129.13;35.27;;;;;;;;;;5003784;28;20519;-93
2021/10/22 02:47:45;;;;;;;120.67;35.47;;;;;;;;;;5005094;28;20452;-93
2021/10/22 02:50:12;;;;;;;110.47;33.73;;;;;;;;;;5003544;28;20496;-93
2021/10/22 02:52:38;;;;;;;126.93;33.50;;;;;;;;;;5003804;28;20469;-93
2021/10/22 02:55:06;;;;;;;148.67;34.50;;;;;;;;;;5004180;28;20500;-94
2021/10/22 02:57:32;;;;;;;141.97;34.83;;;;;;;;;;5003888;28;20453;-93
2021/10/22 02:59:59;;;;;;;162.20;36.83;;;;;;;;;;5004583;28;21104;-93
2021/10/22 03:02:25;;;;;;;136.03;36.33;;;;;;;;;;5004318;28;20460;-93
2021/10/22 03:04:53;;;;;;;132.00;33.50;;;;;;;;;;5004416;28;20457;-93
2021/10/22 03:07:20;;;;;;;174.87;34.80;;;;;;;;;;5002567;28;20464;-93
2021/10/22 03:09:46;;;;;;;116.67;32.63;;;;;;;;;;5003146;28;20449;-94
2021/10/22 03:12:13;;;;;;;115.33;31.90;;;;;;;;;;5002305;28;20481;-94
2021/10/22 03:14:39;;;;;;;118.20;34.23;;;;;;;;;;5001730;28;20488;-93
2021/10/22 03:17:06;;;;;;;119.23;33.00;;;;;;;;;;5003125;28;20527;-94
2021/10/22 03:19:32;;;;;;;120.07;32.57;;;;;;;;;;5004202;28;20476;-94
2021/10/22 03:22:00;;;;;;;110.43;32.20;;;;;;;;;;5002999;28;20504;-94
2021/10/22 03:24:27;;;;;;;112.93;31.27;;;;;;;;;;5003649;28;21102;-94
2021/10/22 03:26:54;;;;;;;112.60;32.60;;;;;;;;;;5003795;28;20488;-93
2021/10/22 03:29:20;;;;;;;109.13;31.27;;;;;;;;;;5002936;28;20495;-94
2021/10/22 03:31:47;;;;;;;107.83;31.47;;;;;;;;;;5003226;28;20457;-93
2021/10/22 03:34:14;;;;;;;107.40;30.97;;;;;;;;;;5002869;28;20445;-94
2021/10/22 03:36:41;;;;;;;100.50;29.03;;;;;;;;;;5001747;28;20476;-94
2021/10/22 03:39:08;;;;;;;102.10;29.63;;;;;;;;;;5003728;28;20456;-93
2021/10/22 03:41:35;;;;;;;103.37;30.60;;;;;;;;;;5003382;28;20449;-93
2021/10/22 03:44:01;;;;;;;104.73;29.97;;;;;;;;;;5001249;28;20449;-94
2021/10/22 03:46:28;;;;;;;104.30;30.83;;;;;;;;;;5001681;28;20528;-94
2021/10/22 03:48:55;;;;;;;105.70;30.50;;;;;;;;;;5002551;28;20445;-94
2021/10/22 03:51:21;;;;;;;108.87;29.53;;;;;;;;;;5001566;28;20500;-94
2021/10/22 03:53:48;;;;;;;105.23;29.60;;;;;;;;;;5001320;28;20496;-93
2021/10/22 03:56:16;;;;;;;101.53;30.40;;;;;;;;;;5002203;28;20456;-94
2021/10/22 03:58:43;;;;;;;125.87;35.90;;;;;;;;;;5002995;28;20445;-93
2021/10/22 04:01:09;;;;;;;109.73;32.87;;;;;;;;;;5003455;28;20452;-93
2021/10/22 04:03:35;;;;;;;117.30;32.73;;;;;;;;;;5001759;28;20452;-92
2021/10/22 04:06:02;;;;;;;111.43;31.97;;;;;;;;;;5001367;28;20950;-93
2021/10/22 04:08:29;;;;;;;107.90;29.47;;;;;;;;;;5003016;28;20468;-92
2021/10/22 04:10:55;;;;;;;113.10;29.93;;;;;;;;;;5003527;28;20520;-93
2021/10/22 04:13:24;;;;;;;109.10;30.70;;;;;;;;;;5003084;28;21013;-94
2021/10/22 04:15:50;;;;;;;112.77;32.60;;;;;;;;;;5003416;28;20481;-93
2021/10/22 04:18:17;;;;;;;115.80;31.53;;;;;;;;;;5002952;28;21032;-93
2021/10/22 04:20:43;;;;;;;114.47;29.70;;;;;;;;;;5002813;28;20456;-92
2021/10/22 04:23:10;;;;;;;113.87;34.73;;;;;;;;;;5001629;28;20456;-93
2021/10/22 04:25:37;;;;;;;123.90;32.73;;;;;;;;;;5001748;28;20510;-93
2021/10/22 04:28:04;;;;;;;117.20;33.53;;;;;;;;;;5001835;28;21091;-93
2021/10/22 04:30:32;;;;;;;119.83;33.73;;;;;;;;;;5002652;28;20448;-93
2021/10/22 04:32:58;;;;;;;117.97;35.07;;;;;;;;;;5000792;28;20456;-93
2021/10/22 04:35:25;;;;;;;116.77;34.87;;;;;;;;;;5000872;28;20500;-93
2021/10/22 04:38:12;;;;;;;119.03;34.70;;;;;;;;;;5000304;28;20519;-93
2021/10/22 04:40:40;;;;;;;120.57;35.17;;;;;;;;;;5002807;28;20445;-94
2021/10/22 04:43:08;;;;;;;117.27;33.83;;;;;;;;;;5002042;28;20893;-93
2021/10/22 04:45:37;;;;;;;129.97;35.10;;;;;;;;;;5002433;28;20503;-93
2021/10/22 04:48:04;;;;;;;134.97;36.80;;;;;;;;;;5004440;28;20577;-94
2021/10/22 04:50:31;;;;;;;119.43;33.40;;;;;;;;;;5006536;28;20507;-93
2021/10/22 04:52:58;;;;;;;116.47;34.03;;;;;;;;;;5007356;28;20461;-94
2021/10/22 04:55:26;;;;;;;122.83;35.57;;;;;;;;;;5005707;28;20454;-92
2021/10/22 04:57:53;;;;;;;129.97;35.33;;;;;;;;;;5009359;28;20821;-94
2021/10/22 05:00:19;;;;;;;140.37;35.63;;;;;;;;;;5007159;28;20543;-93
2021/10/22 05:02:48;;;;;;;138.63;35.80;;;;;;;;;;5007308;28;20449;-94
2021/10/22 05:05:15;;;;;;;139.27;36.23;;;;;;;;;;5006435;28;20535;-94
2021/10/22 05:07:42;;;;;;;147.67;35.90;;;;;;;;;;5005969;28;20453;-92
2021/10/22 05:10:09;;;;;;;149.97;36.40;;;;;;;;;;5007277;28;20456;-92
2021/10/22 05:12:36;;;;;;;161.17;35.17;;;;;;;;;;5007103;28;20441;-93
2021/10/22 05:15:04;;;;;;;144.20;35.87;;;;;;;;;;5006867;28;20452;-92
2021/10/22 05:17:32;;;;;;;145.70;37.90;;;;;;;;;;5006755;28;20535;-92
2021/10/22 05:20:00;;;;;;;138.00;36.50;;;;;;;;;;5005888;28;20480;-93
2021/10/22 05:22:27;;;;;;;142.37;36.50;;;;;;;;;;5004099;28;21016;-93
2021/10/22 05:24:54;;;;;;;144.13;34.63;;;;;;;;;;5003762;28;20448;-93
2021/10/22 05:27:20;;;;;;;139.93;36.87;;;;;;;;;;5004751;28;20492;-94
2021/10/22 05:29:47;;;;;;;154.33;36.10;;;;;;;;;;5005187;28;20457;-93
2021/10/22 05:32:13;;;;;;;133.80;34.17;;;;;;;;;;5005514;28;20457;-93
2021/10/22 05:34:40;;;;;;;126.47;34.93;;;;;;;;;;4997620;28;20488;-93
2021/10/22 05:37:08;;;;;;;134.33;32.17;;;;;;;;;;5005522;28;20496;-92
2021/10/22 05:39:34;;;;;;;149.23;33.83;;;;;;;;;;5005258;28;20464;-93
2021/10/22 05:42:01;;;;;;;135.90;31.23;;;;;;;;;;5006135;28;20539;-93
2021/10/22 05:44:27;;;;;;;113.57;29.60;;;;;;;;;;5005740;28;20457;-93
2021/10/22 05:46:54;;;;;;;139.67;29.50;;;;;;;;;;5004805;28;21344;-93
2021/10/22 05:49:21;;;;;;;120.17;32.00;;;;;;;;;;5003016;28;20448;-94
2021/10/22 05:51:48;;;;;;;145.60;31.13;;;;;;;;;;5002984;28;20472;-93
2021/10/22 05:54:16;;;;;;;141.70;32.27;;;;;;;;;;5003990;28;20460;-93
2021/10/22 05:56:42;;;;;;;121.90;30.33;;;;;;;;;;5004836;28;20908;-92
2021/10/22 05:59:09;;;;;;;162.97;32.00;;;;;;;;;;5004225;28;20461;-94
2021/10/22 06:01:35;;;;;;;148.57;30.30;;;;;;;;;;5005108;28;20925;-93
2021/10/22 06:04:02;;;;;;;166.40;31.80;;;;;;;;;;5004478;28;20453;-95
2021/10/22 06:06:29;;;;;;;131.43;32.87;;;;;;;;;;5004989;28;20564;-93
2021/10/22 06:08:56;;;;;;;124.83;31.90;;;;;;;;;;5004595;28;20461;-93
2021/10/22 06:11:25;;;;;;;137.03;32.40;;;;;;;;;;5005437;28;20547;-94
2021/10/22 06:13:52;;;;;;;152.70;34.77;;;;;;;;;;5003719;28;20448;-94
2021/10/22 06:16:18;;;;;;;121.47;31.80;;;;;;;;;;5004123;28;20468;-93
2021/10/22 06:18:48;;;;;;;123.50;34.13;;;;;;;;;;5002911;28;20480;-94
2021/10/22 06:21:22;;;;;;;141.80;33.73;;;;;;;;;;5003059;28;20465;-94
2021/10/22 06:23:55;;;;;;;146.00;37.13;;;;;;;;;;5004049;28;20547;-93
2021/10/22 06:26:21;;;;;;;129.63;34.10;;;;;;;;;;5013027;28;20498;-94
2021/10/22 06:28:49;;;;;;;121.27;34.90;;;;;;;;;;5013855;28;21238;-93
2021/10/22 06:31:16;;;;;;;119.07;35.10;;;;;;;;;;5012885;28;20448;-93
2021/10/22 06:33:42;;;;;;;133.33;35.07;;;;;;;;;;5010856;28;20457;-94
2021/10/22 06:36:09;;;;;;;130.83;35.00;;;;;;;;;;5003333;28;20464;-93
2021/10/22 06:38:35;;;;;;;130.97;34.67;;;;;;;;;;5002540;28;20468;-94
2021/10/22 06:41:02;;;;;;;134.37;34.67;;;;;;;;;;5007853;28;20457;-93
2021/10/22 06:43:29;;;;;;;144.20;38.00;;;;;;;;;;5000837;28;20449;-94
2021/10/22 06:45:57;;;;;;;127.97;37.50;;;;;;;;;;5004200;28;20459;-94
2021/10/22 06:48:23;;;;;;;122.47;33.67;;;;;;;;;;5004898;28;20441;-94
2021/10/22 06:50:50;;;;;;;127.03;36.13;;;;;;;;;;5004646;28;20461;-94
2021/10/22 06:53:16;;;;;;;120.37;35.80;;;;;;;;;;5002640;28;20576;-94
2021/10/22 06:55:43;;;;;;;120.03;34.37;;;;;;;;;;4999900;28;20516;-94
2021/10/22 06:58:10;;;;;;;135.60;37.60;;;;;;;;;;5002022;28;20452;-94
2021/10/22 07:00:37;;;;;;;139.20;39.33;;;;;;;;;;5003380;28;20454;-94
2021/10/22 07:03:05;;;;;;;138.03;36.77;;;;;;;;;;5003374;28;20481;-94
2021/10/22 07:08:29;;;;;;;131.27;35.57;;;;;;;;;;4940251;29;20468;-94
2021/10/22 07:10:56;;;;;;;131.30;35.07;;;;;;;;;;4941264;29;20451;-95
2021/10/22 07:13:22;;;;;;;128.63;35.17;;;;;;;;;;4969251;28;20508;-96
2021/10/22 07:15:49;;;;;;;141.00;37.07;;;;;;;;;;5004356;28;20445;-94
2021/10/22 07:18:17;;;;;;;132.77;37.60;;;;;;;;;;5003271;28;20467;-93
2021/10/22 07:20:43;;;;;;;140.40;37.90;;;;;;;;;;5002991;28;20452;-94
2021/10/22 07:23:11;;;;;;;138.70;38.47;;;;;;;;;;5002732;28;20461;-95
2021/10/22 07:25:38;;;;;;;152.13;39.80;;;;;;;;;;5008255;28;20495;-94
2021/10/22 07:28:09;;;;;;;138.47;38.30;;;;;;;;;;5004373;28;20496;-95
2021/10/22 07:30:35;;;;;;;140.90;40.07;;;;;;;;;;5004110;28;20454;-95
2021/10/22 07:33:02;;;;;;;128.77;35.97;;;;;;;;;;5004052;28;20452;-95
2021/10/22 07:35:30;;;;;;;132.60;37.90;;;;;;;;;;5002468;28;21191;-94
2021/10/22 07:37:57;;;;;;;136.43;36.60;;;;;;;;;;4998315;28;20468;-94
2021/10/22 07:40:24;;;;;;;124.80;36.03;;;;;;;;;;5002408;28;20469;-95
2021/10/22 07:42:50;;;;;;;129.97;37.20;;;;;;;;;;5003299;28;20518;-93
2021/10/22 07:45:17;;;;;;;128.63;37.90;;;;;;;;;;5003174;28;21184;-96
2021/10/22 07:47:43;;;;;;;129.30;38.13;;;;;;;;;;5004267;28;20528;-95
2021/10/22 07:50:10;;;;;;;127.20;38.37;;;;;;;;;;5003914;28;20488;-96
2021/10/22 07:52:38;;;;;;;137.60;39.80;;;;;;;;;;5002146;28;20449;-95
2021/10/22 07:55:05;;;;;;;130.03;39.73;;;;;;;;;;4999893;28;20452;-96
2021/10/22 07:57:33;;;;;;;129.50;40.50;;;;;;;;;;5000764;28;20489;-96
2021/10/22 07:59:59;;;;;;;125.47;39.30;;;;;;;;;;4998693;28;20530;-96
2021/10/22 08:02:26;;;;;;;128.73;40.73;;;;;;;;;;4997823;28;20485;-96
2021/10/22 08:04:53;;;;;;;130.00;39.30;;;;;;;;;;4999994;28;20461;-95
2021/10/22 08:07:21;;;;;;;117.40;35.50;;;;;;;;;;5000159;28;20489;-94
2021/10/22 08:09:49;;;;;;;126.73;36.73;;;;;;;;;;5000128;28;20458;-94
2021/10/22 08:12:16;;;;;;;118.83;37.40;;;;;;;;;;5002136;28;20449;-96
2021/10/22 08:14:45;;;;;;;127.90;37.77;;;;;;;;;;5003138;28;21004;-96
2021/10/22 08:17:12;;;;;;;125.37;39.47;;;;;;;;;;5005378;28;20450;-96
2021/10/22 08:19:39;;;;;;;115.97;36.60;;;;;;;;;;5003311;28;20552;-96
2021/10/22 08:24:50;;;;;;;121.20;37.43;;;;;;;;;;5004572;28;20481;-95
2021/10/22 08:27:17;;;;;;;121.20;36.63;;;;;;;;;;5006483;28;20493;-96
2021/10/22 08:29:44;;;;;;;122.77;38.77;;;;;;;;;;5009585;28;20443;-96
2021/10/22 08:32:11;;;;;;;122.13;38.43;;;;;;;;;;5011760;28;20536;-96
2021/10/22 08:34:38;;;;;;;123.47;39.00;;;;;;;;;;5007600;28;20451;-96
2021/10/22 08:40:36;;;;;;;125.77;38.57;;;;;;;;;;5006861;28;20444;-96
2021/10/22 08:43:09;;;;;;;120.00;38.03;;;;;;;;;;4992408;28;20484;-96
2021/10/22 08:56:57;;;;;;;118.47;36.70;;;;;;;;;;3624504;23;20478;-96
2021/10/22 09:07:13;;;;;;;118.77;37.40;;;;;;;;;;5235530;23;21114;-95
2021/10/22 09:09:50;;;;;;;119.40;38.07;;;;;;;;;;4985470;28;20488;-96
2021/10/22 09:15:19;;;;;;;118.80;40.50;;;;;;;;;;5282219;23;20499;-96
2021/10/22 09:17:47;;;;;;;114.87;37.30;;;;;;;;;;5117735;23;20500;-96
2021/10/22 09:20:14;;;;;;;116.17;38.53;;;;;;;;;;5001743;28;20535;-96
2021/10/22 09:22:50;;;;;;;118.67;38.90;;;;;;;;;;5007906;28;20456;-96
2021/10/22 09:25:18;;;;;;;118.87;36.80;;;;;;;;;;5019385;23;20477;-95
2021/10/22 09:27:51;;;;;;;117.67;39.73;;;;;;;;;;5011002;28;20494;-96
2021/10/22 09:30:37;;;;;;;113.93;37.23;;;;;;;;;;5010880;28;20449;-96
2021/10/22 09:36:09;;;;;;;115.73;39.53;;;;;;;;;;5663715;23;20500;-96
2021/10/22 09:38:37;;;;;;;121.07;38.50;;;;;;;;;;4990585;28;20489;-96
2021/10/22 09:43:40;;;;;;;114.00;36.20;;;;;;;;;;5057347;23;20505;-96
2021/10/22 09:46:11;;;;;;;109.80;37.27;;;;;;;;;;4994638;28;20452;-94
2021/10/22 09:48:41;;;;;;;114.87;38.40;;;;;;;;;;5002060;28;21288;-95
2021/10/22 09:51:21;;;;;;;113.10;38.30;;;;;;;;;;5004710;28;20543;-96
2021/10/22 09:53:49;;;;;;;115.13;37.20;;;;;;;;;;5007422;28;20457;-95
2021/10/22 09:56:20;;;;;;;107.57;37.10;;;;;;;;;;4971944;28;20474;-96
2021/10/22 09:58:54;;;;;;;114.50;36.70;;;;;;;;;;4977968;28;20464;-95
2021/10/22 10:01:21;;;;;;;111.33;36.83;;;;;;;;;;4988642;28;20500;-94
2021/10/22 10:03:47;;;;;;;106.80;35.70;;;;;;;;;;5002564;28;20945;-95
2021/10/22 10:06:14;;;;;;;104.00;33.50;;;;;;;;;;5008391;28;20484;-96
2021/10/22 10:08:41;;;;;;;106.67;34.50;;;;;;;;;;4998994;28;20519;-96
2021/10/22 10:11:10;;;;;;;105.87;34.80;;;;;;;;;;4984405;28;20465;-96
2021/10/22 10:13:36;;;;;;;98.90;32.00;;;;;;;;;;4986744;28;20465;-96
2021/10/22 10:16:03;;;;;;;106.50;32.83;;;;;;;;;;4984145;28;20453;-95
2021/10/22 10:18:32;;;;;;;103.77;30.90;;;;;;;;;;4985595;28;20806;-95
2021/10/22 10:20:59;;;;;;;99.70;30.93;;;;;;;;;;4986454;28;20449;-95
2021/10/22 10:23:26;;;;;;;98.10;30.60;;;;;;;;;;4986161;28;20517;-94
2021/10/22 10:25:53;;;;;;;96.07;30.83;;;;;;;;;;4982802;28;20468;-94
2021/10/22 10:28:35;;;;;;;99.83;31.50;;;;;;;;;;4995250;28;20492;-94
2021/10/22 10:31:23;;;;;;;96.50;30.37;;;;;;;;;;5004040;28;20507;-93
2021/10/22 10:33:49;;;;;;;91.90;28.50;;;;;;;;;;5004034;28;20461;-94
2021/10/22 10:36:30;;;;;;;95.27;28.50;;;;;;;;;;5003867;28;20460;-95
2021/10/22 10:38:57;;;;;;;91.90;27.40;;;;;;;;;;5001156;28;20449;-93
2021/10/22 10:41:23;;;;;;;92.47;27.60;;;;;;;;;;4983406;28;20534;-93
2021/10/22 10:43:50;;;;;;;97.87;27.60;;;;;;;;;;4985839;28;20516;-95
2021/10/22 10:46:31;;;;;;;89.27;26.30;;;;;;;;;;4985739;28;20479;-93
2021/10/22 10:48:59;;;;;;;93.17;27.70;;;;;;;;;;4986212;28;20530;-93
2021/10/22 10:51:35;;;;;;;91.20;27.50;;;;;;;;;;4986003;28;20441;-94
2021/10/22 10:54:02;;;;;;;87.60;26.53;;;;;;;;;;4985302;28;20454;-95
2021/10/22 10:56:34;;;;;;;86.20;25.77;;;;;;;;;;4984753;28;20486;-93
2021/10/22 10:59:00;;;;;;;91.30;25.97;;;;;;;;;;4984454;28;20454;-93
2021/10/22 11:01:30;;;;;;;87.80;25.40;;;;;;;;;;4985481;28;20446;-95
2021/10/22 11:03:58;;;;;;;87.10;26.13;;;;;;;;;;4984573;28;20458;-93
2021/10/22 11:06:36;;;;;;;89.50;26.57;;;;;;;;;;4984189;28;20478;-93
2021/10/22 11:09:04;;;;;;;87.83;26.33;;;;;;;;;;4981545;28;20523;-94
2021/10/22 11:11:35;;;;;;;85.73;25.20;;;;;;;;;;4981817;28;20482;-93
2021/10/22 11:14:12;;;;;;;87.40;27.10;;;;;;;;;;4981988;28;20464;-93
2021/10/22 11:16:41;;;;;;;83.57;24.70;;;;;;;;;;4984189;28;20517;-93
2021/10/22 11:19:08;;;;;;;84.40;24.03;;;;;;;;;;4984673;28;20513;-93
2021/10/22 11:21:38;;;;;;;82.03;25.60;;;;;;;;;;4984444;28;21009;-94
2021/10/22 11:24:05;;;;;;;83.00;24.10;;;;;;;;;;4986262;28;20484;-95
2021/10/22 11:26:32;;;;;;;85.30;24.90;;;;;;;;;;4982729;28;20462;-93
2021/10/22 11:29:00;;;;;;;85.70;25.70;;;;;;;;;;4982293;28;20491;-95
2021/10/22 11:31:40;;;;;;;83.43;24.37;;;;;;;;;;4984510;28;20455;-96
2021/10/22 11:34:07;;;;;;;84.97;25.13;;;;;;;;;;4986000;28;20463;-93
2021/10/22 11:36:41;;;;;;;86.50;23.63;;;;;;;;;;4985664;28;20460;-96
2021/10/22 11:39:18;;;;;;;89.30;25.57;;;;;;;;;;4987428;28;20512;-95
2021/10/22 11:42:04;;;;;;;87.90;23.40;;;;;;;;;;4985610;28;20515;-95
2021/10/22 11:44:41;;;;;;;83.80;23.47;;;;;;;;;;4996176;28;20463;-95
2021/10/22 11:47:10;;;;;;;88.13;23.23;;;;;;;;;;5015134;28;20454;-96
2021/10/22 11:52:29;;;;;;;83.03;23.23;;;;;;;;;;4986427;28;20471;-94
2021/10/22 11:54:57;;;;;;;84.67;24.13;;;;;;;;;;4983734;28;20481;-93
2021/10/22 11:57:24;;;;;;;83.50;23.07;;;;;;;;;;4979725;28;20524;-95
2021/10/22 11:59:51;;;;;;;84.90;23.50;;;;;;;;;;4988183;28;20509;-95
2021/10/22 12:02:21;;;;;;;87.43;24.07;;;;;;;;;;4987246;28;20468;-94
2021/10/22 12:04:53;;;;;;;78.50;23.27;;;;;;;;;;4986755;28;20457;-95
2021/10/22 12:07:19;;;;;;;81.93;23.10;;;;;;;;;;4986116;28;20481;-94
2021/10/22 12:09:55;;;;;;;79.57;23.30;;;;;;;;;;4985574;28;20442;-95
2021/10/22 12:12:21;;;;;;;80.43;21.83;;;;;;;;;;4984774;28;20466;-94
2021/10/22 12:14:48;;;;;;;77.03;21.50;;;;;;;;;;4986899;28;20514;-94
2021/10/22 12:17:18;;;;;;;80.40;23.73;;;;;;;;;;4985169;28;20528;-94
2021/10/22 12:19:45;;;;;;;80.53;22.20;;;;;;;;;;4989364;28;20458;-93
2021/10/22 12:22:12;;;;;;;79.00;21.77;;;;;;;;;;4988274;28;21049;-93
2021/10/22 12:24:44;;;;;;;83.10;24.10;;;;;;;;;;5009940;28;20485;-95
2021/10/22 12:27:12;;;;;;;76.10;22.23;;;;;;;;;;4983569;28;20474;-95
2021/10/22 12:29:54;;;;;;;81.97;23.00;;;;;;;;;;4976842;28;20493;-96
2021/10/22 12:32:30;;;;;;;81.20;24.10;;;;;;;;;;4986783;28;20470;-94
2021/10/22 12:34:58;;;;;;;99.20;34.03;;;;;;;;;;4990849;28;20493;-95
2021/10/22 12:37:35;;;;;;;88.63;28.83;;;;;;;;;;4994175;28;20440;-94
2021/10/22 12:40:12;;;;;;;91.97;31.80;;;;;;;;;;4997830;28;20489;-94
2021/10/22 12:42:42;;;;;;;92.90;31.60;;;;;;;;;;4980348;28;20465;-95
2021/10/22 12:48:07;;;;;;;79.10;24.27;;;;;;;;;;4989762;28;20485;-94
2021/10/22 12:50:34;;;;;;;80.10;23.37;;;;;;;;;;4985234;28;20500;-94
2021/10/22 12:53:02;;;;;;;80.17;25.30;;;;;;;;;;4966592;28;20899;-95
2021/10/22 12:55:30;;;;;;;81.93;25.07;;;;;;;;;;4982060;28;20450;-96
2021/10/22 12:58:11;;;;;;;79.20;23.40;;;;;;;;;;5028075;23;20476;-96
2021/10/22 13:00:39;;;;;;;77.67;22.00;;;;;;;;;;5005295;28;20449;-94
2021/10/22 13:03:06;;;;;;;76.67;22.63;;;;;;;;;;5002365;28;20471;-96
2021/10/22 13:05:35;;;;;;;81.37;23.00;;;;;;;;;;5002689;28;20453;-95
2021/10/22 13:14:01;;;;;;;78.53;23.77;;;;;;;;;;4998305;28;20468;-95
2021/10/22 13:21:57;;;;;;;76.33;21.90;;;;;;;;;;5006055;28;20448;-95
2021/10/22 13:24:23;;;;;;;76.77;22.20;;;;;;;;;;5006480;28;20450;-94
2021/10/22 13:26:50;;;;;;;75.70;22.50;;;;;;;;;;5001255;28;20471;-95
2021/10/22 13:29:17;;;;;;;77.67;21.93;;;;;;;;;;5002607;28;20492;-95
2021/10/22 13:31:48;;;;;;;77.17;22.20;;;;;;;;;;5004371;28;20449;-95
2021/10/22 13:34:15;;;;;;;75.60;21.57;;;;;;;;;;4987330;28;20454;-95
2021/10/22 13:36:42;;;;;;;77.60;23.70;;;;;;;;;;4979443;28;21010;-94
2021/10/22 13:39:08;;;;;;;78.17;25.00;;;;;;;;;;4992799;28;20539;-93
2021/10/22 13:41:35;;;;;;;79.37;24.10;;;;;;;;;;4994437;28;20488;-93
2021/10/22 13:44:02;;;;;;;77.10;23.87;;;;;;;;;;5004989;28;20453;-94
2021/10/22 13:46:28;;;;;;;77.97;24.10;;;;;;;;;;5004085;28;20460;-96
2021/10/22 13:48:56;;;;;;;75.17;22.57;;;;;;;;;;5004170;28;20538;-95
2021/10/22 13:51:23;;;;;;;74.67;22.07;;;;;;;;;;5005775;28;20472;-96
2021/10/22 13:53:49;;;;;;;74.30;21.17;;;;;;;;;;5003361;28;21366;-96
2021/10/22 13:56:16;;;;;;;76.77;20.70;;;;;;;;;;4997024;28;20473;-96
2021/10/22 13:58:43;;;;;;;74.67;20.90;;;;;;;;;;5003162;28;20496;-95
2021/10/22 14:01:10;;;;;;;75.37;20.90;;;;;;;;;;4986323;28;20460;-96
2021/10/22 14:03:50;;;;;;;74.43;19.60;;;;;;;;;;4985470;28;20445;-94
2021/10/22 14:06:18;;;;;;;84.40;19.27;;;;;;;;;;4988106;28;20460;-96
2021/10/22 14:08:44;;;;;;;71.90;19.80;;;;;;;;;;4977651;28;20497;-94
2021/10/22 14:11:13;;;;;;;75.67;20.80;;;;;;;;;;4994691;28;20553;-96
2021/10/22 14:13:45;;;;;;;75.30;19.50;;;;;;;;;;5000143;28;20927;-95
2021/10/22 14:19:19;;;;;;;72.43;18.90;;;;;;;;;;4986028;28;20521;-96
2021/10/22 14:25:01;;;;;;;73.07;19.97;;;;;;;;;;4909981;29;20452;-96
2021/10/22 14:30:11;;;;;;;76.30;19.20;;;;;;;;;;4983240;28;20515;-95
2021/10/22 14:32:38;;;;;;;78.57;20.47;;;;;;;;;;4984103;28;20520;-94
2021/10/22 14:35:05;;;;;;;78.00;20.20;;;;;;;;;;4986580;28;20457;-94
2021/10/22 14:37:33;;;;;;;77.00;20.40;;;;;;;;;;4990188;28;20496;-96
2021/10/22 14:40:08;;;;;;;74.67;19.80;;;;;;;;;;5012440;28;20476;-96
2021/10/22 14:42:35;;;;;;;73.20;19.63;;;;;;;;;;5014339;28;20465;-96
2021/10/22 14:47:58;;;;;;;79.93;19.97;;;;;;;;;;4991158;23;20493;-96
2021/10/22 14:50:42;;;;;;;76.87;20.93;;;;;;;;;;5018729;28;20481;-96
2021/10/22 14:56:17;;;;;;;75.30;20.63;;;;;;;;;;5299719;23;20505;-96
2021/10/22 15:04:37;;;;;;;76.60;20.90;;;;;;;;;;5205940;23;20481;-96
2021/10/22 15:07:32;;;;;;;77.37;20.87;;;;;;;;;;5024250;23;20474;-96
2021/10/22 15:10:07;;;;;;;79.83;21.17;;;;;;;;;;5023594;23;20539;-96
2021/10/22 15:12:35;;;;;;;78.07;21.20;;;;;;;;;;5012651;28;20782;-96
2021/10/22 15:15:11;;;;;;;79.40;22.27;;;;;;;;;;5303655;23;20589;-95
2021/10/22 15:17:54;;;;;;;77.70;22.20;;;;;;;;;;4985144;23;20456;-96
2021/10/22 17:06:17;;;;;;;78.80;21.83;;;;;;;;;;5058003;23;20507;-95
2021/10/22 17:27:04;;;;;;;89.20;26.07;;;;;;;;;;5485535;23;20500;-96
2021/10/22 18:14:22;;;;;;;80.70;23.20;;;;;;;;;;5869895;23;20857;-96
2021/10/22 18:16:49;;;;;;;84.10;22.47;;;;;;;;;;4954140;29;20450;-96
2021/10/22 18:19:15;;;;;;;80.90;21.47;;;;;;;;;;4981837;28;20459;-96